Oviedo en Asturias

latitud = 43° 21' 16''N | longitud = 005° 52' 22''W
231 metros sobre el nivel del mar | datos mensuales

Fecha, hora, temperatura, viento dirección y velocidad, humedad y presión.

  • 23-04-2018 10:00:00 | 11.20°C | Nordeste |7.00 km/h | 98.00% | 981.60 hPa
  • 23-04-2018 09:00:00 | 11.10°C | Nordeste |7.00 km/h | 99.00% | 981.20 hPa
  • 23-04-2018 08:00:00 | 10.80°C | Nordeste |9.00 km/h | 99.00% | 980.70 hPa
  • 23-04-2018 07:00:00 | 10.90°C | Este |6.00 km/h | 98.00% | 980.20 hPa
  • 23-04-2018 06:00:00 | 11.10°C | Este |5.00 km/h | 98.00% | 980.00 hPa
  • 23-04-2018 05:00:00 | 11.40°C | Este |5.00 km/h | 98.00% | 979.90 hPa
  • 23-04-2018 04:00:00 | 11.80°C | Este |4.00 km/h | 98.00% | 979.70 hPa
  • 23-04-2018 03:00:00 | 11.80°C | Noroeste |3.00 km/h | 97.00% | 979.70 hPa
  • 23-04-2018 02:00:00 | 11.90°C | Noroeste |3.00 km/h | 96.00% | 979.60 hPa
  • 23-04-2018 01:00:00 | 12.10°C | Nordeste |8.00 km/h | 95.00% | 979.60 hPa
  • 23-04-2018 00:00:00 | 12.10°C | Este |10.00 km/h | 96.00% | 980.00 hPa
  • 22-04-2018 23:00:00 | 12.30°C | Este |11.00 km/h | 97.00% | 979.90 hPa
  • 22-04-2018 22:00:00 | 12.30°C | Oeste |5.00 km/h | 94.00% | 979.40 hPa
  • 22-04-2018 21:00:00 | 12.90°C | Nordeste |5.00 km/h | 91.00% | 978.40 hPa
  • 22-04-2018 20:00:00 | 13.70°C | Nordeste |7.00 km/h | 88.00% | 977.50 hPa
  • 22-04-2018 19:00:00 | 14.90°C | Este |8.00 km/h | 82.00% | 977.10 hPa
  • 22-04-2018 18:00:00 | 15.70°C | Este |13.00 km/h | 81.00% | 976.80 hPa
  • 22-04-2018 17:00:00 | 16.90°C | Nordeste |9.00 km/h | 77.00% | 976.30 hPa
  • 22-04-2018 16:00:00 | 16.50°C | Este |13.00 km/h | 77.00% | 976.20 hPa
  • 22-04-2018 15:00:00 | 20.00°C | Este |10.00 km/h | 69.00% | 976.00 hPa
  • 22-04-2018 14:00:00 | 20.70°C | Este |3.00 km/h | 58.00% | 976.20 hPa
  • 22-04-2018 13:00:00 | 18.90°C | Noroeste |3.00 km/h | 64.00% | 976.80 hPa
  • 22-04-2018 12:00:00 | 15.50°C | Oeste |5.00 km/h | 79.00% | 977.10 hPa
  • 22-04-2018 11:00:00 | 14.90°C | Sur |4.00 km/h | 77.00% | 977.30 hPa